createdAt,value
2023-04-30T00:00:52.961Z,30.93
2023-04-30T00:03:42.863Z,33.63
2023-04-30T00:06:31.888Z,33.30
2023-04-30T00:09:20.459Z,32.40
2023-04-30T00:12:08.858Z,33.67
2023-04-30T00:14:57.312Z,33.20
2023-04-30T00:17:49.465Z,34.43
2023-04-30T00:20:39.253Z,32.70
2023-04-30T00:23:27.642Z,33.17
2023-04-30T00:26:16.069Z,30.57
2023-04-30T00:29:08.348Z,35.10
2023-04-30T00:31:57.009Z,31.97
2023-04-30T00:34:46.027Z,32.90
2023-04-30T00:37:35.884Z,32.10
2023-04-30T00:40:24.363Z,32.70
2023-04-30T00:43:12.793Z,33.23
2023-04-30T00:46:01.215Z,33.17
2023-04-30T00:48:50.189Z,33.67
2023-04-30T00:51:41.658Z,33.00
2023-04-30T00:54:31.504Z,31.77
2023-04-30T00:57:19.995Z,32.70
2023-04-30T01:00:11.475Z,32.77
2023-04-30T01:02:59.982Z,32.40
2023-04-30T01:05:48.584Z,31.27
2023-04-30T01:08:37.041Z,33.30
2023-04-30T01:11:33.680Z,31.87
2023-04-30T01:14:27.073Z,31.70
2023-04-30T01:17:19.756Z,30.87
2023-04-30T01:20:09.290Z,32.67
2023-04-30T01:23:04.169Z,33.53
2023-04-30T01:26:01.413Z,31.73
2023-04-30T01:28:51.901Z,33.23
2023-04-30T01:31:40.383Z,33.30
2023-04-30T01:34:28.785Z,33.20
2023-04-30T01:37:23.513Z,33.30
2023-04-30T01:40:22.655Z,32.97
2023-04-30T01:43:13.725Z,32.00
2023-04-30T01:46:09.582Z,31.90
2023-04-30T01:49:05.270Z,36.90
2023-04-30T01:51:59.599Z,34.47
2023-04-30T01:54:52.739Z,31.87
2023-04-30T01:57:43.995Z,30.67
2023-04-30T02:00:32.564Z,32.30
2023-04-30T02:03:23.031Z,34.90
2023-04-30T02:06:11.539Z,32.60
2023-04-30T02:09:03.511Z,31.87
2023-04-30T02:11:52.370Z,33.20
2023-04-30T02:14:40.791Z,32.40
2023-04-30T02:17:29.234Z,31.90
2023-04-30T02:20:19.039Z,32.30
2023-04-30T02:23:09.872Z,32.77
2023-04-30T02:25:58.246Z,33.77
2023-04-30T02:28:46.650Z,33.70
2023-04-30T02:31:35.047Z,32.07
2023-04-30T02:34:23.466Z,32.57
2023-04-30T02:37:13.228Z,31.77
2023-04-30T02:40:01.656Z,34.10
2023-04-30T02:42:50.099Z,33.10
2023-04-30T02:45:38.515Z,31.53
2023-04-30T02:48:27.248Z,32.17
2023-04-30T02:51:15.636Z,32.97
2023-04-30T02:54:05.601Z,32.10
2023-04-30T02:56:54.578Z,31.53
2023-04-30T02:59:45.954Z,32.00
2023-04-30T03:02:34.724Z,32.97
2023-04-30T03:05:24.189Z,32.97
2023-04-30T03:08:12.934Z,35.23
2023-04-30T03:11:02.780Z,32.00
2023-04-30T03:13:51.792Z,31.00
2023-04-30T03:16:40.559Z,32.80
2023-04-30T03:19:29.006Z,31.47
2023-04-30T03:22:19.480Z,31.90
2023-04-30T03:25:08.495Z,33.07
2023-04-30T03:27:58.544Z,31.53
2023-04-30T03:30:47.824Z,32.60
2023-04-30T03:33:36.502Z,32.00
2023-04-30T03:36:24.902Z,33.07
2023-04-30T03:39:13.219Z,31.07
2023-04-30T03:42:03.525Z,33.83
2023-04-30T03:44:53.364Z,32.27
2023-04-30T03:47:41.723Z,33.13
2023-04-30T03:50:30.741Z,31.70
2023-04-30T03:53:19.051Z,31.93
2023-04-30T03:56:08.224Z,30.40
2023-04-30T03:58:56.576Z,31.20
2023-04-30T04:01:46.515Z,29.80
2023-04-30T04:04:35.416Z,32.70
2023-04-30T04:07:23.767Z,32.27
2023-04-30T04:10:12.273Z,32.27
2023-04-30T04:13:00.871Z,33.27
2023-04-30T04:15:49.301Z,30.93
2023-04-30T04:18:39.005Z,30.57
2023-04-30T04:21:27.403Z,30.90
2023-04-30T04:24:15.850Z,31.47
2023-04-30T04:27:04.447Z,29.10
2023-04-30T04:29:55.117Z,29.90
2023-04-30T04:32:49.612Z,34.30
2023-04-30T04:35:39.904Z,30.10
2023-04-30T04:38:28.303Z,32.97
2023-04-30T04:41:16.760Z,31.80
2023-04-30T04:44:05.585Z,32.07
2023-04-30T04:46:54.144Z,31.30
2023-04-30T04:49:42.573Z,28.17
2023-04-30T04:52:32.301Z,30.97
2023-04-30T04:55:20.747Z,31.13
2023-04-30T04:58:12.771Z,30.57
2023-04-30T05:01:01.341Z,29.37
2023-04-30T05:03:51.205Z,31.87
2023-04-30T05:06:40.930Z,31.27
2023-04-30T05:09:30.779Z,32.77
2023-04-30T05:12:21.050Z,31.33
2023-04-30T05:15:10.235Z,31.07
2023-04-30T05:17:58.687Z,30.93
2023-04-30T05:20:47.214Z,30.53
2023-04-30T05:23:35.593Z,31.30
2023-04-30T05:26:25.390Z,32.03
2023-04-30T05:29:14.085Z,39.43
2023-04-30T05:32:02.904Z,30.80
2023-04-30T05:34:51.571Z,30.90
2023-04-30T05:37:39.867Z,32.60
2023-04-30T05:40:28.250Z,33.30
2023-04-30T05:43:17.973Z,31.83
2023-04-30T05:46:06.694Z,30.50
2023-04-30T05:48:55.178Z,30.70
2023-04-30T05:51:43.545Z,31.37
2023-04-30T05:54:32.266Z,32.10
2023-04-30T05:57:20.879Z,30.40
2023-04-30T06:00:12.567Z,31.60
2023-04-30T06:03:01.283Z,30.03
2023-04-30T06:05:49.746Z,31.47
2023-04-30T06:08:38.114Z,33.50
2023-04-30T06:11:27.263Z,31.30
2023-04-30T06:14:16.015Z,31.57
2023-04-30T06:17:05.737Z,33.00
2023-04-30T06:19:54.275Z,30.90
2023-04-30T06:22:42.791Z,31.63
2023-04-30T06:25:31.168Z,32.57
2023-04-30T06:28:19.497Z,31.77
2023-04-30T06:31:07.993Z,32.93
2023-04-30T06:33:57.781Z,31.47
2023-04-30T06:36:46.108Z,31.40
2023-04-30T06:39:34.559Z,30.90
2023-04-30T06:42:22.902Z,31.77
2023-04-30T06:45:12.421Z,33.97
2023-04-30T06:48:00.921Z,31.13
2023-04-30T06:50:50.698Z,33.83
2023-04-30T06:53:39.068Z,32.30
2023-04-30T06:56:27.404Z,31.40
2023-04-30T06:59:16.635Z,33.57
2023-04-30T07:02:04.940Z,33.07
2023-04-30T07:04:54.518Z,32.10
2023-04-30T07:07:44.241Z,32.57
2023-04-30T07:10:32.713Z,36.00
2023-04-30T07:13:21.159Z,33.77
2023-04-30T07:16:10.672Z,33.30
2023-04-30T07:18:59.962Z,33.77
2023-04-30T07:21:48.363Z,33.37
2023-04-30T07:24:38.101Z,34.60
2023-04-30T07:27:26.513Z,33.67
2023-04-30T07:30:14.805Z,30.40
2023-04-30T07:33:03.314Z,33.60
2023-04-30T07:35:52.411Z,34.77
2023-04-30T07:38:40.865Z,32.77
2023-04-30T07:41:30.686Z,32.40
2023-04-30T07:44:19.105Z,33.53
2023-04-30T07:47:07.447Z,33.57
2023-04-30T07:49:56.231Z,33.50
2023-04-30T07:52:44.735Z,33.07
2023-04-30T07:55:33.076Z,33.93
2023-04-30T07:58:22.874Z,35.07
2023-04-30T08:01:11.254Z,33.27
2023-04-30T08:03:59.780Z,35.77
2023-04-30T08:06:48.292Z,34.90
2023-04-30T08:09:36.767Z,35.83
2023-04-30T08:12:25.210Z,34.97
2023-04-30T08:15:14.944Z,36.97
2023-04-30T08:18:03.884Z,34.67
2023-04-30T08:20:52.238Z,35.60
2023-04-30T08:23:40.705Z,35.23
2023-04-30T08:26:29.099Z,34.97
2023-04-30T08:29:17.508Z,36.10
2023-04-30T08:32:07.405Z,36.20
2023-04-30T08:34:55.937Z,36.17
2023-04-30T08:37:44.575Z,35.77
2023-04-30T08:40:50.189Z,35.40
2023-04-30T08:43:40.651Z,34.77
2023-04-30T08:46:31.064Z,35.60
2023-04-30T08:49:21.942Z,36.27
2023-04-30T08:52:11.664Z,37.33
2023-04-30T08:55:00.395Z,37.17
2023-04-30T08:57:48.793Z,36.67
2023-04-30T09:00:38.960Z,36.87
2023-04-30T09:03:28.511Z,37.23
2023-04-30T09:06:18.793Z,37.77
2023-04-30T09:09:11.851Z,36.40
2023-04-30T09:12:16.917Z,37.30
2023-04-30T09:15:09.097Z,37.40
2023-04-30T09:18:08.507Z,37.00
2023-04-30T09:20:58.390Z,38.40
2023-04-30T09:23:57.823Z,38.60
2023-04-30T09:26:48.416Z,37.73
2023-04-30T09:29:38.055Z,36.70
2023-04-30T09:32:26.748Z,37.80
2023-04-30T09:35:30.214Z,36.87
2023-04-30T09:38:29.281Z,37.57
2023-04-30T09:41:26.812Z,37.23
2023-04-30T09:44:31.058Z,38.07
2023-04-30T09:47:20.931Z,38.40
2023-04-30T09:50:10.333Z,37.57
2023-04-30T09:53:06.887Z,38.77
2023-04-30T09:55:57.353Z,38.17
2023-04-30T09:58:52.018Z,39.80
2023-04-30T10:01:41.215Z,39.13
2023-04-30T10:04:33.326Z,36.70
2023-04-30T10:07:23.076Z,38.90
2023-04-30T10:10:12.034Z,38.70
2023-04-30T10:13:02.896Z,38.70
2023-04-30T10:15:54.289Z,38.60
2023-04-30T10:18:43.996Z,38.80
2023-04-30T10:21:33.994Z,39.67
2023-04-30T10:24:22.357Z,38.60
2023-04-30T10:27:10.903Z,38.90
2023-04-30T10:30:00.672Z,40.17
2023-04-30T10:33:04.056Z,39.80
2023-04-30T10:35:56.664Z,38.60
2023-04-30T10:38:47.826Z,39.70
2023-04-30T10:41:36.803Z,39.47
2023-04-30T10:44:27.527Z,39.07
2023-04-30T10:47:19.269Z,39.57
2023-04-30T10:50:12.104Z,39.47
2023-04-30T10:53:04.601Z,39.40
2023-04-30T10:55:54.944Z,39.90
2023-04-30T10:58:44.190Z,38.90
2023-04-30T11:01:32.671Z,40.00
2023-04-30T11:04:21.096Z,39.77
2023-04-30T11:07:11.688Z,39.20
2023-04-30T11:10:00.184Z,38.50
2023-04-30T11:12:49.300Z,40.83
2023-04-30T11:15:42.378Z,39.77
2023-04-30T11:18:31.216Z,39.50
2023-04-30T11:21:21.794Z,39.63
2023-04-30T11:24:11.562Z,39.00
2023-04-30T11:27:06.594Z,39.07
2023-04-30T11:29:56.104Z,40.27
2023-04-30T11:32:47.526Z,39.03
2023-04-30T11:35:36.577Z,39.80
2023-04-30T11:38:28.541Z,39.80
2023-04-30T11:41:18.771Z,39.37
2023-04-30T11:44:23.498Z,39.87
2023-04-30T11:47:12.031Z,39.47
2023-04-30T11:50:00.561Z,40.17
2023-04-30T11:52:51.134Z,39.20
2023-04-30T11:55:42.834Z,41.10
2023-04-30T11:58:38.013Z,40.73
2023-04-30T12:01:28.581Z,40.87
2023-04-30T12:04:17.150Z,40.47
2023-04-30T12:07:09.134Z,40.00
2023-04-30T12:09:57.803Z,39.90
2023-04-30T12:12:46.694Z,41.60
2023-04-30T12:15:37.168Z,40.37
2023-04-30T12:18:25.553Z,40.63
2023-04-30T12:21:14.353Z,39.83
2023-04-30T12:24:03.544Z,40.93
2023-04-30T12:26:54.733Z,40.00
2023-04-30T12:29:45.551Z,38.57
2023-04-30T12:32:39.299Z,39.87
2023-04-30T12:35:31.110Z,39.97
2023-04-30T12:38:20.355Z,40.40
2023-04-30T12:41:13.708Z,39.57
2023-04-30T12:44:24.334Z,39.67
2023-04-30T12:47:14.421Z,40.67
2023-04-30T12:50:04.648Z,39.70
2023-04-30T12:52:52.982Z,40.60
2023-04-30T12:55:42.239Z,40.37
2023-04-30T12:58:32.026Z,40.20
2023-04-30T13:01:23.103Z,39.60
2023-04-30T13:04:11.591Z,39.70
2023-04-30T13:07:01.342Z,38.97
2023-04-30T13:09:49.803Z,40.43
2023-04-30T13:12:38.198Z,40.13
2023-04-30T13:15:26.723Z,39.80
2023-04-30T13:18:15.910Z,40.40
2023-04-30T13:21:04.353Z,40.10
2023-04-30T13:23:55.295Z,39.03
2023-04-30T13:26:45.003Z,40.00
2023-04-30T13:29:33.525Z,41.10
2023-04-30T13:32:21.965Z,39.50
2023-04-30T13:35:11.487Z,42.87
2023-04-30T13:38:00.363Z,40.80
2023-04-30T13:40:50.215Z,41.50
2023-04-30T13:43:42.085Z,40.20
2023-04-30T13:46:31.293Z,40.13
2023-04-30T13:49:19.694Z,41.27
2023-04-30T13:52:08.058Z,40.10
2023-04-30T13:54:57.279Z,39.73
2023-04-30T13:57:47.015Z,40.50
2023-04-30T14:00:35.431Z,40.60
2023-04-30T14:03:23.920Z,41.30
2023-04-30T14:06:12.539Z,40.70
2023-04-30T14:09:01.076Z,41.50
2023-04-30T14:11:49.475Z,39.47
2023-04-30T14:14:39.395Z,38.67
2023-04-30T14:17:28.289Z,39.60
2023-04-30T14:20:17.008Z,41.17
2023-04-30T14:23:05.341Z,39.30
2023-04-30T14:25:54.635Z,39.00
2023-04-30T14:28:43.010Z,41.13
2023-04-30T14:31:32.937Z,40.07
2023-04-30T14:34:21.333Z,39.60
2023-04-30T14:37:09.707Z,39.90
2023-04-30T14:39:58.772Z,38.70
2023-04-30T14:42:47.164Z,39.70
2023-04-30T14:45:35.671Z,40.23
2023-04-30T14:48:25.424Z,39.53
2023-04-30T14:51:13.887Z,39.00
2023-04-30T14:54:03.456Z,39.43
2023-04-30T14:56:52.131Z,37.80
2023-04-30T14:59:41.906Z,38.97
2023-04-30T15:02:30.436Z,39.80
2023-04-30T15:05:20.357Z,37.73
2023-04-30T15:08:08.984Z,38.40
2023-04-30T15:10:57.933Z,38.53
2023-04-30T15:13:48.229Z,38.27
2023-04-30T15:16:37.219Z,38.93
2023-04-30T15:19:25.717Z,37.37
2023-04-30T15:22:16.282Z,38.17
2023-04-30T15:25:05.472Z,39.20
2023-04-30T15:27:53.894Z,36.70
2023-04-30T15:30:43.000Z,38.70
2023-04-30T15:33:31.617Z,39.77
2023-04-30T15:36:22.322Z,37.77
2023-04-30T15:39:12.040Z,37.40
2023-04-30T15:42:00.582Z,36.17
2023-04-30T15:44:48.944Z,38.37
2023-04-30T15:47:37.452Z,37.80
2023-04-30T15:50:26.120Z,38.43
2023-04-30T15:53:14.528Z,37.70
2023-04-30T15:56:05.067Z,37.37
2023-04-30T15:58:54.155Z,37.53
2023-04-30T16:01:42.983Z,36.70
2023-04-30T16:04:31.380Z,37.27
2023-04-30T16:07:19.763Z,39.40
2023-04-30T16:10:09.732Z,39.67
2023-04-30T16:12:59.451Z,36.83
2023-04-30T16:15:47.875Z,38.23
2023-04-30T16:18:36.223Z,37.13
2023-04-30T16:21:24.877Z,37.57
2023-04-30T16:24:16.495Z,37.20
2023-04-30T16:27:05.068Z,37.70
2023-04-30T16:29:55.148Z,37.70
2023-04-30T16:32:44.410Z,40.90
2023-04-30T16:35:32.998Z,38.37
2023-04-30T16:38:21.936Z,38.40
2023-04-30T16:41:10.322Z,39.13
2023-04-30T16:43:59.277Z,40.20
2023-04-30T16:46:49.089Z,39.60
2023-04-30T16:49:37.481Z,39.97
2023-04-30T16:52:25.977Z,39.00
2023-04-30T16:55:14.380Z,40.93
2023-04-30T16:58:02.761Z,41.00
2023-04-30T17:00:56.008Z,41.03
2023-04-30T17:03:46.249Z,42.23
2023-04-30T17:06:35.518Z,40.73
2023-04-30T17:09:24.177Z,42.37
2023-04-30T17:12:12.552Z,40.00
2023-04-30T17:15:00.915Z,41.23
2023-04-30T17:17:49.330Z,41.33
2023-04-30T17:20:39.300Z,40.23
2023-04-30T17:23:27.674Z,41.10
2023-04-30T17:26:16.099Z,40.10
2023-04-30T17:29:04.516Z,41.50
2023-04-30T17:31:53.077Z,40.87
2023-04-30T17:34:42.415Z,40.57
2023-04-30T17:37:32.130Z,41.00
2023-04-30T17:40:20.533Z,39.97
2023-04-30T17:43:09.394Z,40.90
2023-04-30T17:45:57.808Z,41.20
2023-04-30T17:48:46.615Z,40.87
2023-04-30T17:51:35.440Z,41.00
2023-04-30T17:54:25.243Z,40.97
2023-04-30T17:57:13.714Z,41.27
2023-04-30T18:00:02.110Z,40.97
2023-04-30T18:02:51.172Z,43.47
2023-04-30T18:05:40.071Z,40.50
2023-04-30T18:08:28.674Z,39.70
2023-04-30T18:11:18.406Z,42.87
2023-04-30T18:14:06.895Z,39.70
2023-04-30T18:16:55.297Z,40.40
2023-04-30T18:19:44.686Z,40.80
2023-04-30T18:22:33.116Z,40.10
2023-04-30T18:25:21.990Z,41.07
2023-04-30T18:28:11.700Z,39.53
2023-04-30T18:31:00.057Z,40.67
2023-04-30T18:33:48.453Z,41.47
2023-04-30T18:36:37.012Z,42.20
2023-04-30T18:39:25.478Z,39.37
2023-04-30T18:42:14.644Z,39.60
2023-04-30T18:45:04.644Z,40.27
2023-04-30T18:47:53.105Z,39.87
2023-04-30T18:50:43.255Z,39.37
2023-04-30T18:53:31.774Z,38.97
2023-04-30T18:56:21.122Z,38.57
2023-04-30T18:59:10.374Z,38.63
2023-04-30T19:02:00.221Z,39.80
2023-04-30T19:04:49.338Z,37.80
2023-04-30T19:07:37.629Z,38.07
2023-04-30T19:10:26.260Z,38.17
2023-04-30T19:13:14.585Z,39.40
2023-04-30T19:16:03.233Z,40.47
2023-04-30T19:18:53.028Z,38.37
2023-04-30T19:21:41.365Z,37.37
2023-04-30T19:24:29.707Z,36.83
2023-04-30T19:27:18.078Z,36.60
2023-04-30T19:30:08.022Z,37.40
2023-04-30T19:32:56.408Z,37.47
2023-04-30T19:35:49.117Z,39.20
2023-04-30T19:38:37.433Z,36.30
2023-04-30T19:41:26.009Z,37.77
2023-04-30T19:44:14.448Z,36.30
2023-04-30T19:47:03.527Z,36.50
2023-04-30T19:49:52.894Z,35.10
2023-04-30T19:52:42.658Z,37.47
2023-04-30T19:55:32.532Z,36.60
2023-04-30T19:58:21.005Z,35.90
2023-04-30T20:01:09.378Z,37.67
2023-04-30T20:03:58.071Z,35.27
2023-04-30T20:06:47.508Z,36.57
2023-04-30T20:09:37.820Z,33.77
2023-04-30T20:12:26.534Z,36.90
2023-04-30T20:15:15.002Z,36.63
2023-04-30T20:18:05.744Z,35.50
2023-04-30T20:20:54.345Z,36.00
2023-04-30T20:23:42.718Z,36.57
2023-04-30T20:26:33.088Z,32.33
2023-04-30T20:29:23.158Z,38.37
2023-04-30T20:32:11.794Z,36.27
2023-04-30T20:35:00.294Z,39.00
2023-04-30T20:37:49.716Z,36.40
2023-04-30T20:40:40.153Z,35.93
2023-04-30T20:43:29.855Z,37.80
2023-04-30T20:46:18.532Z,35.83
2023-04-30T20:49:06.878Z,34.27
2023-04-30T20:51:55.386Z,32.27
2023-04-30T20:54:43.825Z,33.00
2023-04-30T20:57:32.244Z,33.27
2023-04-30T21:00:22.218Z,33.57
2023-04-30T21:03:10.768Z,32.17
2023-04-30T21:05:59.399Z,34.07
2023-04-30T21:08:48.699Z,33.10
2023-04-30T21:11:39.074Z,30.77
2023-04-30T21:14:27.549Z,32.43
2023-04-30T21:17:17.222Z,32.03
2023-04-30T21:20:06.169Z,32.30
2023-04-30T21:22:55.553Z,32.80
2023-04-30T21:25:44.043Z,30.70
2023-04-30T21:28:32.639Z,31.27
2023-04-30T21:31:21.348Z,30.10
2023-04-30T21:34:11.075Z,30.30
2023-04-30T21:36:59.873Z,32.33
2023-04-30T21:39:48.234Z,30.23
2023-04-30T21:42:36.696Z,30.60
2023-04-30T21:45:25.062Z,29.97
2023-04-30T21:48:13.609Z,33.17
2023-04-30T21:51:04.411Z,31.30
2023-04-30T21:53:52.725Z,30.50
2023-04-30T21:56:41.170Z,29.90
2023-04-30T21:59:29.501Z,31.30
2023-04-30T22:02:23.363Z,31.67
2023-04-30T22:05:13.041Z,31.10
2023-04-30T22:08:03.755Z,31.53
2023-04-30T22:10:56.814Z,29.10
2023-04-30T22:13:45.189Z,29.27
2023-04-30T22:16:34.024Z,28.67
2023-04-30T22:19:22.511Z,30.70
2023-04-30T22:22:10.899Z,31.80
2023-04-30T22:25:00.604Z,28.60
2023-04-30T22:27:48.981Z,29.03
2023-04-30T22:30:37.403Z,28.20
2023-04-30T22:33:25.887Z,30.57
2023-04-30T22:36:14.248Z,27.40
2023-04-30T22:39:02.585Z,29.80
2023-04-30T22:41:52.468Z,28.40
2023-04-30T22:44:41.028Z,28.97
2023-04-30T22:47:29.386Z,28.60
2023-04-30T22:50:17.869Z,27.57
2023-04-30T22:53:06.428Z,28.77
2023-04-30T22:55:55.311Z,26.83
2023-04-30T22:58:44.982Z,27.17
2023-04-30T23:01:34.611Z,28.80
2023-04-30T23:04:23.116Z,26.60
2023-04-30T23:07:11.522Z,25.77
2023-04-30T23:09:59.942Z,26.00
2023-04-30T23:12:48.327Z,26.67
2023-04-30T23:15:38.122Z,27.23
2023-04-30T23:18:26.492Z,26.70
2023-04-30T23:21:14.834Z,27.80
2023-04-30T23:24:04.334Z,27.37
2023-04-30T23:26:52.693Z,31.67
2023-04-30T23:29:41.104Z,27.10
2023-04-30T23:32:31.564Z,26.87
2023-04-30T23:35:20.042Z,25.90
2023-04-30T23:38:08.407Z,27.50
2023-04-30T23:40:57.587Z,25.80
2023-04-30T23:43:45.925Z,25.37
2023-04-30T23:46:34.285Z,28.00
2023-04-30T23:49:25.019Z,26.77
2023-04-30T23:52:14.430Z,26.93
2023-04-30T23:55:02.847Z,27.57
2023-04-30T23:57:51.343Z,25.77
